createdAt,value
2017-11-27T00:00:06.240Z,92.40
2017-11-27T00:02:33.928Z,92.40
2017-11-27T00:05:00.877Z,92.40
2017-11-27T00:07:27.792Z,92.50
2017-11-27T00:09:55.421Z,92.60
2017-11-27T00:12:22.430Z,92.40
2017-11-27T00:14:49.354Z,92.40
2017-11-27T00:17:17.051Z,92.40
2017-11-27T00:19:43.989Z,92.40
2017-11-27T00:22:11.104Z,92.60
2017-11-27T00:24:38.800Z,92.60
2017-11-27T00:27:05.804Z,92.60
2017-11-27T00:29:32.804Z,92.50
2017-11-27T00:31:59.761Z,92.70
2017-11-27T00:34:26.689Z,92.40
2017-11-27T00:36:53.657Z,92.40
2017-11-27T00:39:20.604Z,92.30
2017-11-27T00:41:47.560Z,92.40
2017-11-27T00:44:14.499Z,92.50
2017-11-27T00:46:41.466Z,92.40
2017-11-27T00:49:08.392Z,92.20
2017-11-27T00:51:35.372Z,92.30
2017-11-27T00:54:02.373Z,92.50
2017-11-27T00:56:30.293Z,92.50
2017-11-27T00:58:57.998Z,92.50
2017-11-27T01:01:25.033Z,92.20
2017-11-27T01:03:51.980Z,92.20
2017-11-27T01:06:18.951Z,92.40
2017-11-27T01:08:45.911Z,92.40
2017-11-27T01:11:12.885Z,92.60
2017-11-27T01:13:39.833Z,92.40
2017-11-27T01:16:06.698Z,92.50
2017-11-27T01:18:33.679Z,92.60
2017-11-27T01:21:00.561Z,92.40
2017-11-27T01:23:27.511Z,92.40
2017-11-27T01:25:54.621Z,92.30
2017-11-27T01:28:21.524Z,92.30
2017-11-27T01:30:49.200Z,92.50
2017-11-27T01:33:23.279Z,92.30
2017-11-27T01:35:50.170Z,92.40
2017-11-27T01:38:17.116Z,92.40
2017-11-27T01:40:44.099Z,92.30
2017-11-27T01:43:11.018Z,92.20
2017-11-27T01:45:37.976Z,92.10
2017-11-27T01:48:05.033Z,92.30
2017-11-27T01:50:31.935Z,92.20
2017-11-27T01:52:59.667Z,92.50
2017-11-27T01:55:26.657Z,92.50
2017-11-27T01:57:53.620Z,92.60
2017-11-27T02:00:20.518Z,92.60
2017-11-27T02:02:47.381Z,92.80
2017-11-27T02:05:14.383Z,92.70
2017-11-27T02:07:41.274Z,92.70
2017-11-27T02:10:09.035Z,93.10
2017-11-27T02:12:36.757Z,93.10
2017-11-27T02:15:03.791Z,93.00
2017-11-27T02:17:30.713Z,93.20
2017-11-27T02:19:57.637Z,93.40
2017-11-27T02:22:25.391Z,93.40
2017-11-27T02:24:52.428Z,93.30
2017-11-27T02:27:19.300Z,93.60
2017-11-27T02:29:46.906Z,93.30
2017-11-27T02:32:13.898Z,93.30
2017-11-27T02:34:41.507Z,93.30
2017-11-27T02:37:08.457Z,93.30
2017-11-27T02:39:35.325Z,93.50
2017-11-27T02:42:02.269Z,93.70
2017-11-27T02:44:29.223Z,93.60
2017-11-27T02:46:56.126Z,93.60
2017-11-27T02:49:23.079Z,93.50
2017-11-27T02:51:50.049Z,93.30
2017-11-27T02:54:17.199Z,93.30
2017-11-27T02:56:44.047Z,93.30
2017-11-27T02:59:10.974Z,93.20
2017-11-27T03:01:37.894Z,93.10
2017-11-27T03:04:04.880Z,92.90
2017-11-27T03:06:31.765Z,92.70
2017-11-27T03:08:59.392Z,92.80
2017-11-27T03:11:26.442Z,92.80
2017-11-27T03:13:53.380Z,92.60
2017-11-27T03:16:20.287Z,92.30
2017-11-27T03:18:47.169Z,92.30
2017-11-27T03:21:14.095Z,92.50
2017-11-27T03:23:41.041Z,92.50
2017-11-27T03:26:08.038Z,92.10
2017-11-27T03:28:34.926Z,92.10
2017-11-27T03:31:01.813Z,92.20
2017-11-27T03:33:28.796Z,92.40
2017-11-27T03:35:56.551Z,92.20
2017-11-27T03:38:24.156Z,92.50
2017-11-27T03:40:51.066Z,92.20
2017-11-27T03:43:18.764Z,92.60
2017-11-27T03:45:45.634Z,92.70
2017-11-27T03:48:12.573Z,92.60
2017-11-27T03:50:39.500Z,92.70
2017-11-27T03:53:06.444Z,92.60
2017-11-27T03:55:33.315Z,92.70
2017-11-27T03:58:00.321Z,92.90
2017-11-27T04:00:27.188Z,92.80
2017-11-27T04:02:54.138Z,93.00
2017-11-27T04:05:21.048Z,93.10
2017-11-27T04:07:48.106Z,93.30
2017-11-27T04:10:15.009Z,93.30
2017-11-27T04:12:41.957Z,93.20
2017-11-27T04:15:08.928Z,93.30
2017-11-27T04:17:36.664Z,93.50
2017-11-27T04:20:03.785Z,93.50
2017-11-27T04:22:30.686Z,93.60
2017-11-27T04:24:58.414Z,93.80
2017-11-27T04:27:25.329Z,93.50
2017-11-27T04:29:52.216Z,93.50
2017-11-27T04:32:19.182Z,93.50
2017-11-27T04:34:46.170Z,93.50
2017-11-27T04:37:13.147Z,93.40
2017-11-27T04:39:40.149Z,93.30
2017-11-27T04:42:07.127Z,93.30
2017-11-27T04:44:34.065Z,93.20
2017-11-27T04:47:01.177Z,93.10
2017-11-27T04:49:28.995Z,93.10
2017-11-27T04:51:56.048Z,93.10
2017-11-27T04:54:23.056Z,93.20
2017-11-27T04:56:49.945Z,93.20
2017-11-27T04:59:16.938Z,93.20
2017-11-27T05:01:44.571Z,93.20
2017-11-27T05:04:11.580Z,93.20
2017-11-27T05:06:38.529Z,93.20
2017-11-27T05:09:05.472Z,93.10
2017-11-27T05:11:32.430Z,93.30
2017-11-27T05:13:59.378Z,93.10
2017-11-27T05:16:26.282Z,93.10
2017-11-27T05:18:54.052Z,92.90
2017-11-27T05:21:21.042Z,92.80
2017-11-27T05:23:48.092Z,93.00
2017-11-27T05:26:27.563Z,93.10
2017-11-27T05:29:07.570Z,93.30
2017-11-27T05:31:47.082Z,93.30
2017-11-27T05:34:27.947Z,93.50
2017-11-27T05:37:10.523Z,93.60
2017-11-27T05:39:40.092Z,93.60
2017-11-27T05:42:06.963Z,93.70
2017-11-27T05:44:33.939Z,93.80
2017-11-27T05:47:00.893Z,93.70
2017-11-27T05:49:28.549Z,93.90
2017-11-27T05:51:55.486Z,93.70
2017-11-27T05:54:24.991Z,93.70
2017-11-27T05:56:52.024Z,93.70
2017-11-27T05:59:18.938Z,93.90
2017-11-27T06:01:45.893Z,93.90
2017-11-27T06:04:12.805Z,94.00
2017-11-27T06:06:40.509Z,94.10
2017-11-27T06:09:07.446Z,94.10
2017-11-27T06:11:34.363Z,94.20
2017-11-27T06:14:02.078Z,94.20
2017-11-27T06:16:42.660Z,94.20
2017-11-27T06:19:10.533Z,94.20
2017-11-27T06:21:37.425Z,94.20
2017-11-27T06:24:04.427Z,94.40
2017-11-27T06:26:31.440Z,94.30
2017-11-27T06:28:58.361Z,94.20
2017-11-27T06:31:25.526Z,94.10
2017-11-27T06:33:52.549Z,94.10
2017-11-27T06:36:20.205Z,94.20
2017-11-27T06:38:47.928Z,94.30
2017-11-27T06:41:14.941Z,94.30
2017-11-27T06:43:41.897Z,94.30
2017-11-27T06:46:08.830Z,94.40
2017-11-27T06:48:35.839Z,94.60
2017-11-27T06:51:02.797Z,94.50
2017-11-27T06:53:29.783Z,94.60
2017-11-27T06:55:56.696Z,94.40
2017-11-27T06:58:24.434Z,94.10
2017-11-27T07:00:51.341Z,94.10
2017-11-27T07:03:18.316Z,94.10
2017-11-27T07:05:45.337Z,93.90
2017-11-27T07:08:12.410Z,93.80
2017-11-27T07:10:39.303Z,93.60
2017-11-27T07:13:07.035Z,93.40
2017-11-27T07:15:34.040Z,93.40
2017-11-27T07:18:01.262Z,93.20
2017-11-27T07:20:28.926Z,93.10
2017-11-27T07:22:56.673Z,92.60
2017-11-27T07:25:23.562Z,92.60
2017-11-27T07:27:50.441Z,92.70
2017-11-27T07:30:17.390Z,92.60
2017-11-27T07:32:44.278Z,92.40
2017-11-27T07:35:12.055Z,92.10
2017-11-27T07:37:44.917Z,92.10
2017-11-27T07:40:12.632Z,92.10
2017-11-27T07:42:39.726Z,91.90
2017-11-27T07:45:07.350Z,92.00
2017-11-27T07:47:34.388Z,91.90
2017-11-27T07:50:01.338Z,91.80
2017-11-27T07:52:28.335Z,91.60
2017-11-27T07:54:56.101Z,91.40
2017-11-27T07:57:23.784Z,91.40
2017-11-27T07:59:50.702Z,91.10
2017-11-27T08:02:17.675Z,91.10
2017-11-27T08:04:44.602Z,90.90
2017-11-27T08:07:19.192Z,90.00
2017-11-27T08:09:46.083Z,89.30
2017-11-27T08:12:13.811Z,85.30
2017-11-27T08:14:40.871Z,85.10
2017-11-27T08:17:10.733Z,81.70
2017-11-27T08:19:37.961Z,82.40
2017-11-27T08:22:05.850Z,84.60
2017-11-27T08:24:33.250Z,84.50
2017-11-27T08:27:00.262Z,85.50
2017-11-27T08:29:27.583Z,87.20
2017-11-27T08:31:55.230Z,88.70
2017-11-27T08:34:22.504Z,88.60
2017-11-27T08:36:50.157Z,89.50
2017-11-27T08:39:17.334Z,89.50
2017-11-27T08:41:44.545Z,88.60
2017-11-27T08:44:11.621Z,88.80
2017-11-27T08:46:39.808Z,88.60
2017-11-27T08:49:06.809Z,88.60
2017-11-27T08:51:33.873Z,88.90
2017-11-27T08:54:01.386Z,88.70
2017-11-27T08:56:28.844Z,89.00
2017-11-27T08:58:55.766Z,89.20
2017-11-27T09:01:23.155Z,88.60
2017-11-27T09:03:50.138Z,87.50
2017-11-27T09:06:17.344Z,87.00
2017-11-27T09:08:44.314Z,86.70
2017-11-27T09:11:11.220Z,86.20
2017-11-27T09:13:38.575Z,85.00
2017-11-27T09:16:05.872Z,85.70
2017-11-27T09:18:33.263Z,85.70
2017-11-27T09:21:00.631Z,85.80
2017-11-27T09:23:28.457Z,87.40
2017-11-27T09:25:55.809Z,87.40
2017-11-27T09:28:23.297Z,87.70
2017-11-27T09:30:50.706Z,88.00
2017-11-27T09:33:17.724Z,88.50
2017-11-27T09:35:45.694Z,90.50
2017-11-27T09:38:12.942Z,90.50
2017-11-27T09:40:40.425Z,90.80
2017-11-27T09:43:07.482Z,91.10
2017-11-27T09:45:34.434Z,91.90
2017-11-27T09:48:01.446Z,92.20
2017-11-27T09:50:29.505Z,92.90
2017-11-27T09:52:56.874Z,92.80
2017-11-27T09:55:24.234Z,93.20
2017-11-27T09:57:51.679Z,93.50
2017-11-27T10:00:19.923Z,93.60
2017-11-27T10:02:46.833Z,93.40
2017-11-27T10:05:13.765Z,93.70
2017-11-27T10:07:40.995Z,93.80
2017-11-27T10:10:09.350Z,93.80
2017-11-27T10:12:36.575Z,93.80
2017-11-27T10:15:03.882Z,94.10
2017-11-27T10:17:31.033Z,94.20
2017-11-27T10:19:58.017Z,94.20
2017-11-27T10:22:25.042Z,94.10
2017-11-27T10:24:51.982Z,94.20
2017-11-27T10:27:19.634Z,94.50
2017-11-27T10:29:46.866Z,94.50
2017-11-27T10:32:13.746Z,94.30
2017-11-27T10:34:41.781Z,94.40
2017-11-27T10:37:08.755Z,94.40
2017-11-27T10:39:37.434Z,94.40
2017-11-27T10:42:04.506Z,94.40
2017-11-27T10:44:32.371Z,94.30
2017-11-27T10:47:02.006Z,94.50
2017-11-27T10:49:29.777Z,93.80
2017-11-27T10:51:57.816Z,94.00
2017-11-27T10:54:25.750Z,93.90
2017-11-27T10:56:53.106Z,93.90
2017-11-27T10:59:20.597Z,93.90
2017-11-27T11:01:58.765Z,94.20
2017-11-27T11:04:27.966Z,94.30
2017-11-27T11:06:55.693Z,94.30
2017-11-27T11:09:25.886Z,94.10
2017-11-27T11:11:53.930Z,94.20
2017-11-27T11:14:21.836Z,94.30
2017-11-27T11:16:49.782Z,94.70
2017-11-27T11:19:16.762Z,94.70
2017-11-27T11:21:45.136Z,94.90
2017-11-27T11:24:12.900Z,94.70
2017-11-27T11:26:43.211Z,94.70
2017-11-27T11:29:11.837Z,95.20
2017-11-27T11:31:42.874Z,95.10
2017-11-27T11:34:09.949Z,95.40
2017-11-27T11:36:41.473Z,95.60
2017-11-27T11:39:09.414Z,96.20
2017-11-27T11:41:36.813Z,96.20
2017-11-27T11:44:16.018Z,96.40
2017-11-27T11:46:43.987Z,96.70
2017-11-27T11:49:11.751Z,96.40
2017-11-27T11:51:39.616Z,96.90
2017-11-27T11:54:07.453Z,96.90
2017-11-27T11:56:34.529Z,96.60
2017-11-27T11:59:02.177Z,97.50
2017-11-27T12:01:29.213Z,97.20
2017-11-27T12:03:57.870Z,97.20
2017-11-27T12:06:24.856Z,97.40
2017-11-27T12:08:52.641Z,97.40
2017-11-27T12:11:23.275Z,97.70
2017-11-27T12:13:52.338Z,97.70
2017-11-27T12:16:19.332Z,97.60
2017-11-27T12:18:47.104Z,97.60
2017-11-27T12:21:14.095Z,97.60
2017-11-27T12:23:41.049Z,97.70
2017-11-27T12:26:08.022Z,97.60
2017-11-27T12:28:35.747Z,97.80
2017-11-27T12:31:02.702Z,97.80
2017-11-27T12:33:29.666Z,98.00
2017-11-27T12:35:56.564Z,98.00
2017-11-27T12:38:23.665Z,98.30
2017-11-27T12:40:50.659Z,98.30
2017-11-27T12:43:17.823Z,98.40
2017-11-27T12:45:44.934Z,98.40
2017-11-27T12:48:12.003Z,98.50
2017-11-27T12:50:39.315Z,98.50
2017-11-27T12:53:06.454Z,98.20
2017-11-27T12:55:33.630Z,98.50
2017-11-27T12:58:01.350Z,98.80
2017-11-27T13:00:28.452Z,98.50
2017-11-27T13:02:55.421Z,98.90
2017-11-27T13:05:22.435Z,98.90
2017-11-27T13:07:49.346Z,98.90
2017-11-27T13:10:16.365Z,99.10
2017-11-27T13:12:43.394Z,99.00
2017-11-27T13:15:10.476Z,99.10
2017-11-27T13:17:42.476Z,99.60
2017-11-27T13:20:09.478Z,99.20
2017-11-27T13:22:37.941Z,99.10
2017-11-27T13:25:07.474Z,99.10
2017-11-27T13:27:34.505Z,99.10
2017-11-27T13:30:01.542Z,99.40
2017-11-27T13:32:28.482Z,99.10
2017-11-27T13:34:56.253Z,98.90
2017-11-27T13:37:24.014Z,98.90
2017-11-27T13:39:51.741Z,98.90
2017-11-27T13:42:19.044Z,98.90
2017-11-27T13:44:49.092Z,98.80
2017-11-27T13:47:16.156Z,99.30
2017-11-27T13:49:43.223Z,99.10
2017-11-27T13:52:10.204Z,99.10
2017-11-27T13:54:37.962Z,99.10
2017-11-27T13:57:04.901Z,99.10
2017-11-27T13:59:31.884Z,99.40
2017-11-27T14:02:01.264Z,99.10
2017-11-27T14:04:35.884Z,99.50
2017-11-27T14:07:06.472Z,99.50
2017-11-27T14:09:33.487Z,99.50
2017-11-27T14:12:00.491Z,99.70
2017-11-27T14:14:27.408Z,99.90
2017-11-27T14:16:54.458Z,99.80
2017-11-27T14:19:21.418Z,99.90
2017-11-27T14:21:48.327Z,99.70
2017-11-27T14:24:15.335Z,99.90
2017-11-27T14:26:42.351Z,99.70
2017-11-27T14:29:09.352Z,99.90
2017-11-27T14:31:36.358Z,99.90
2017-11-27T14:34:03.289Z,99.80
2017-11-27T14:36:30.169Z,99.90
2017-11-27T14:38:57.185Z,99.90
2017-11-27T14:41:24.096Z,99.90
2017-11-27T14:43:51.150Z,99.90
2017-11-27T14:46:18.133Z,99.90
2017-11-27T14:48:52.650Z,99.90
2017-11-27T14:51:24.675Z,99.90
2017-11-27T14:53:51.645Z,99.90
2017-11-27T14:56:19.586Z,99.90
2017-11-27T14:58:47.392Z,99.90
2017-11-27T15:01:14.478Z,99.90
2017-11-27T15:03:41.522Z,99.90
2017-11-27T15:06:08.686Z,99.90
2017-11-27T15:08:41.229Z,99.90
2017-11-27T15:11:10.106Z,99.90
2017-11-27T15:13:37.147Z,99.90
2017-11-27T15:16:04.229Z,99.90
2017-11-27T15:18:31.246Z,99.90
2017-11-27T15:20:58.261Z,99.90
2017-11-27T15:23:33.657Z,99.90
2017-11-27T15:26:01.690Z,99.90
2017-11-27T15:28:36.533Z,99.90
2017-11-27T15:31:19.367Z,99.90
2017-11-27T15:34:03.573Z,99.90
2017-11-27T15:36:38.099Z,99.90
2017-11-27T15:39:17.538Z,99.90
2017-11-27T15:41:56.207Z,99.90
2017-11-27T15:44:33.037Z,99.90
2017-11-27T15:47:06.431Z,99.90
2017-11-27T15:49:34.272Z,99.90
2017-11-27T15:52:07.684Z,99.90
2017-11-27T15:54:50.332Z,99.90
2017-11-27T15:57:26.674Z,99.90
2017-11-27T16:00:06.376Z,99.90
2017-11-27T16:02:48.834Z,99.90
2017-11-27T16:05:27.236Z,99.90
2017-11-27T16:10:41.862Z,99.90
2017-11-27T16:15:56.879Z,99.90
2017-11-27T16:18:34.256Z,99.90
2017-11-27T16:21:02.401Z,99.90
2017-11-27T16:23:29.839Z,99.90
2017-11-27T16:25:57.363Z,99.90
2017-11-27T16:28:24.401Z,99.90
2017-11-27T16:30:53.573Z,99.90
2017-11-27T16:33:22.639Z,99.90
2017-11-27T16:35:51.153Z,99.90
2017-11-27T16:41:16.702Z,99.90
2017-11-27T16:43:56.353Z,99.90
2017-11-27T16:46:35.826Z,99.90
2017-11-27T16:49:11.479Z,99.90
2017-11-27T16:54:22.556Z,99.90
2017-11-27T16:56:51.227Z,99.90
2017-11-27T16:59:18.558Z,99.90
2017-11-27T17:04:36.992Z,99.90
2017-11-27T17:07:06.973Z,99.90
2017-11-27T17:09:38.842Z,99.90
2017-11-27T17:12:06.024Z,99.90
2017-11-27T17:14:38.883Z,99.90
2017-11-27T17:17:06.821Z,99.90
2017-11-27T17:19:38.547Z,99.90
2017-11-27T17:22:08.875Z,99.90
2017-11-27T17:24:40.373Z,99.90
2017-11-27T17:27:11.226Z,99.90
2017-11-27T17:29:46.895Z,99.90
2017-11-27T17:32:20.750Z,99.90
2017-11-27T17:35:00.429Z,99.90
2017-11-27T17:37:30.683Z,99.90
2017-11-27T17:40:04.319Z,99.90
2017-11-27T17:42:45.697Z,99.90
2017-11-27T17:48:04.859Z,99.90
2017-11-27T17:50:41.263Z,99.90
2017-11-27T17:53:15.449Z,99.90
2017-11-27T17:55:49.992Z,99.90
2017-11-27T17:58:31.504Z,99.90
2017-11-27T18:01:05.720Z,99.90
2017-11-27T18:03:36.780Z,99.90
2017-11-27T18:06:08.699Z,99.90
2017-11-27T18:08:40.723Z,99.90
2017-11-27T18:11:11.919Z,99.90
2017-11-27T18:13:51.547Z,99.90
2017-11-27T18:16:24.133Z,99.90
2017-11-27T18:18:53.603Z,99.90
2017-11-27T18:21:21.426Z,99.90
2017-11-27T18:23:53.843Z,99.90
2017-11-27T18:26:22.483Z,99.90
2017-11-27T18:29:03.342Z,99.90
2017-11-27T18:31:42.972Z,99.90
2017-11-27T18:34:24.753Z,99.90
2017-11-27T18:37:04.248Z,99.90
2017-11-27T18:39:45.701Z,99.90
2017-11-27T18:42:27.014Z,99.90
2017-11-27T18:45:03.225Z,99.90
2017-11-27T18:47:42.472Z,99.90
2017-11-27T18:50:22.912Z,99.90
2017-11-27T18:53:02.845Z,99.90
2017-11-27T18:55:43.376Z,99.90
2017-11-27T18:58:22.779Z,99.90
2017-11-27T19:01:04.967Z,99.90
2017-11-27T19:03:45.870Z,99.90
2017-11-27T19:06:25.362Z,99.90
2017-11-27T19:09:07.088Z,99.90
2017-11-27T19:11:49.256Z,99.90
2017-11-27T19:14:28.970Z,99.90
2017-11-27T19:17:08.714Z,99.90
2017-11-27T19:19:42.817Z,99.90
2017-11-27T19:22:24.230Z,99.90
2017-11-27T19:25:05.327Z,99.90
2017-11-27T19:27:48.726Z,99.90
2017-11-27T19:30:31.398Z,99.90
2017-11-27T19:33:14.229Z,99.90
2017-11-27T19:35:55.832Z,99.90
2017-11-27T19:38:39.299Z,99.90
2017-11-27T19:41:24.175Z,99.90
2017-11-27T19:44:06.784Z,99.90
2017-11-27T19:46:50.997Z,99.90
2017-11-27T19:49:32.968Z,99.90
2017-11-27T19:52:15.716Z,99.90
2017-11-27T19:54:58.147Z,99.90
2017-11-27T20:00:26.685Z,99.90
2017-11-27T20:03:07.039Z,99.90
2017-11-27T20:05:49.752Z,99.90
2017-11-27T20:08:18.428Z,99.90
2017-11-27T20:10:45.709Z,99.90
2017-11-27T20:13:13.434Z,99.90
2017-11-27T20:15:40.701Z,99.90
2017-11-27T20:18:08.189Z,99.90
2017-11-27T20:20:36.097Z,99.90
2017-11-27T20:23:04.022Z,99.80
2017-11-27T20:25:31.187Z,99.80
2017-11-27T20:27:58.451Z,99.90
2017-11-27T20:30:26.328Z,99.90
2017-11-27T20:32:53.491Z,99.90
2017-11-27T20:35:20.738Z,99.90
2017-11-27T20:37:48.495Z,99.70
2017-11-27T20:40:17.360Z,99.90
2017-11-27T20:42:44.445Z,99.80
2017-11-27T20:45:11.540Z,99.90
2017-11-27T20:47:40.183Z,99.70
2017-11-27T20:50:07.842Z,99.20
2017-11-27T20:52:35.637Z,99.50
2017-11-27T20:55:02.793Z,99.50
2017-11-27T20:57:31.269Z,99.20
2017-11-27T21:00:00.488Z,99.30
2017-11-27T21:02:27.484Z,99.00
2017-11-27T21:04:57.596Z,98.90
2017-11-27T21:07:35.489Z,99.00
2017-11-27T21:10:11.912Z,99.00
2017-11-27T21:12:42.383Z,99.00
2017-11-27T21:15:09.471Z,99.20
2017-11-27T21:17:45.041Z,98.80
2017-11-27T21:20:20.808Z,98.70
2017-11-27T21:22:54.745Z,98.50
2017-11-27T21:25:23.131Z,98.50
2017-11-27T21:27:51.161Z,98.60
2017-11-27T21:30:18.785Z,98.60
2017-11-27T21:32:48.496Z,98.40
2017-11-27T21:35:16.486Z,98.30
2017-11-27T21:37:43.448Z,98.20
2017-11-27T21:40:10.542Z,98.30
2017-11-27T21:42:37.621Z,98.10
2017-11-27T21:45:05.208Z,98.20
2017-11-27T21:47:33.558Z,98.00
2017-11-27T21:50:01.349Z,97.70
2017-11-27T21:52:31.999Z,97.70
2017-11-27T21:54:59.078Z,97.50
2017-11-27T21:57:38.486Z,97.60
2017-11-27T22:00:11.605Z,97.70
2017-11-27T22:02:39.669Z,97.70
2017-11-27T22:05:08.669Z,98.00
2017-11-27T22:07:39.172Z,97.70
2017-11-27T22:10:07.022Z,97.70
2017-11-27T22:12:34.144Z,97.50
2017-11-27T22:15:01.394Z,97.50
2017-11-27T22:17:29.094Z,97.60
2017-11-27T22:19:58.493Z,97.70
2017-11-27T22:22:28.577Z,97.80
2017-11-27T22:24:56.489Z,97.40
2017-11-27T22:27:24.213Z,97.40
2017-11-27T22:29:51.991Z,97.30
2017-11-27T22:32:19.052Z,97.60
2017-11-27T22:34:46.583Z,97.60
2017-11-27T22:37:14.398Z,97.40
2017-11-27T22:39:41.383Z,97.40
2017-11-27T22:42:08.522Z,97.40
2017-11-27T22:44:35.607Z,97.50
2017-11-27T22:47:03.439Z,97.10
2017-11-27T22:49:32.185Z,97.10
2017-11-27T22:51:59.687Z,97.40
2017-11-27T22:54:30.995Z,97.50
2017-11-27T22:56:58.021Z,97.40
2017-11-27T22:59:25.149Z,97.30
2017-11-27T23:01:52.037Z,97.20
2017-11-27T23:04:19.269Z,97.30
2017-11-27T23:06:46.897Z,97.30
2017-11-27T23:09:14.071Z,97.30
2017-11-27T23:11:41.838Z,97.50
2017-11-27T23:14:09.369Z,97.20
2017-11-27T23:16:36.742Z,97.40
2017-11-27T23:19:04.565Z,97.30
2017-11-27T23:21:31.648Z,97.20
2017-11-27T23:23:58.647Z,97.20
2017-11-27T23:26:26.046Z,97.30
2017-11-27T23:28:53.176Z,97.20
2017-11-27T23:31:20.176Z,97.20
2017-11-27T23:33:48.005Z,97.20
2017-11-27T23:36:15.108Z,97.20
2017-11-27T23:38:42.857Z,97.40
2017-11-27T23:41:10.649Z,97.50
2017-11-27T23:43:37.633Z,97.20
2017-11-27T23:46:04.685Z,97.20
2017-11-27T23:48:31.689Z,97.30
2017-11-27T23:50:58.697Z,97.60
2017-11-27T23:53:25.681Z,97.60
2017-11-27T23:55:53.542Z,97.60
2017-11-27T23:58:21.257Z,97.40
